createdAt,value
2022-09-04T00:01:13.874Z,18.20
2022-09-04T00:03:47.343Z,18.20
2022-09-04T00:06:20.185Z,18.20
2022-09-04T00:08:52.980Z,18.10
2022-09-04T00:11:34.278Z,18.10
2022-09-04T00:14:14.666Z,18.10
2022-09-04T00:16:51.087Z,18.10
2022-09-04T00:19:27.850Z,18.00
2022-09-04T00:22:04.272Z,18.00
2022-09-04T00:24:37.833Z,17.90
2022-09-04T00:27:26.570Z,17.90
2022-09-04T00:30:08.937Z,17.90
2022-09-04T00:33:05.010Z,17.90
2022-09-04T00:35:38.322Z,17.80
2022-09-04T00:38:16.108Z,17.80
2022-09-04T00:40:47.518Z,17.80
2022-09-04T00:43:29.753Z,17.80
2022-09-04T00:46:33.918Z,17.70
2022-09-04T00:49:17.186Z,17.70
2022-09-04T00:52:01.989Z,17.70
2022-09-04T00:54:41.576Z,17.60
2022-09-04T00:57:29.146Z,17.60
2022-09-04T01:00:09.161Z,17.60
2022-09-04T01:02:43.831Z,17.50
2022-09-04T01:05:38.889Z,17.50
2022-09-04T01:08:17.481Z,17.50
2022-09-04T01:11:09.670Z,17.50
2022-09-04T01:14:09.964Z,17.50
2022-09-04T01:17:02.339Z,17.40
2022-09-04T01:20:11.005Z,17.40
2022-09-04T01:23:08.842Z,17.40
2022-09-04T01:26:06.289Z,17.30
2022-09-04T01:28:47.956Z,17.30
2022-09-04T01:31:34.075Z,17.30
2022-09-04T01:34:25.525Z,17.30
2022-09-04T01:37:03.713Z,17.20
2022-09-04T01:39:33.539Z,17.20
2022-09-04T01:42:20.769Z,17.20
2022-09-04T01:44:49.425Z,17.10
2022-09-04T01:47:21.198Z,17.10
2022-09-04T01:50:04.227Z,17.10
2022-09-04T01:52:52.301Z,17.10
2022-09-04T01:55:54.750Z,17.10
2022-09-04T01:59:03.252Z,17.00
2022-09-04T02:01:53.518Z,17.00
2022-09-04T02:04:39.485Z,17.00
2022-09-04T02:07:22.572Z,17.00
2022-09-04T02:10:17.526Z,17.00
2022-09-04T02:13:26.170Z,16.90
2022-09-04T02:16:26.592Z,16.90
2022-09-04T02:19:11.973Z,16.90
2022-09-04T02:21:55.932Z,16.80
2022-09-04T02:24:38.373Z,16.80
2022-09-04T02:27:10.867Z,16.80
2022-09-04T02:29:40.529Z,16.80
2022-09-04T02:32:38.840Z,16.80
2022-09-04T02:35:29.826Z,16.80
2022-09-04T02:38:12.411Z,16.80
2022-09-04T02:41:31.528Z,16.70
2022-09-04T02:44:29.986Z,16.70
2022-09-04T02:47:12.347Z,16.70
2022-09-04T02:49:58.624Z,16.70
2022-09-04T02:52:40.751Z,16.60
2022-09-04T02:55:32.410Z,16.60
2022-09-04T02:58:11.619Z,16.60
2022-09-04T03:00:57.385Z,16.60
2022-09-04T03:03:33.281Z,16.60
2022-09-04T03:06:08.897Z,16.50
2022-09-04T03:08:43.272Z,16.50
2022-09-04T03:12:00.770Z,16.50
2022-09-04T03:14:42.926Z,16.50
2022-09-04T03:17:17.265Z,16.50
2022-09-04T03:19:49.413Z,16.40
2022-09-04T03:22:26.220Z,16.40
2022-09-04T03:25:25.408Z,16.40
2022-09-04T03:27:52.166Z,16.40
2022-09-04T03:30:19.224Z,16.40
2022-09-04T03:33:08.673Z,16.30
2022-09-04T03:35:47.125Z,16.30
2022-09-04T03:39:02.466Z,16.30
2022-09-04T03:41:42.568Z,16.30
2022-09-04T03:44:37.194Z,16.20
2022-09-04T03:47:42.833Z,16.20
2022-09-04T03:50:25.906Z,16.20
2022-09-04T03:53:23.097Z,16.20
2022-09-04T03:56:34.000Z,16.10
2022-09-04T03:59:05.441Z,16.10
2022-09-04T04:01:51.055Z,16.10
2022-09-04T04:04:48.197Z,16.10
2022-09-04T04:07:29.004Z,16.10
2022-09-04T04:10:40.645Z,16.00
2022-09-04T04:13:31.473Z,16.00
2022-09-04T04:16:17.834Z,16.00
2022-09-04T04:19:10.781Z,16.00
2022-09-04T04:21:56.353Z,15.90
2022-09-04T04:24:27.226Z,15.90
2022-09-04T04:27:12.794Z,15.90
2022-09-04T04:30:03.537Z,15.90
2022-09-04T04:32:41.021Z,15.90
2022-09-04T04:35:25.117Z,15.90
2022-09-04T04:38:12.949Z,15.80
2022-09-04T04:41:21.346Z,15.80
2022-09-04T04:44:12.483Z,15.80
2022-09-04T04:47:09.799Z,15.70
2022-09-04T04:50:20.683Z,15.70
2022-09-04T04:53:03.529Z,15.70
2022-09-04T04:55:32.940Z,15.70
2022-09-04T04:58:53.926Z,15.70
2022-09-04T05:01:49.157Z,15.60
2022-09-04T05:04:45.940Z,15.60
2022-09-04T05:07:19.014Z,15.60
2022-09-04T05:10:09.818Z,15.60
2022-09-04T05:13:07.734Z,15.60
2022-09-04T05:16:08.510Z,15.60
2022-09-04T05:18:47.094Z,15.60
2022-09-04T05:21:33.751Z,15.60
2022-09-04T05:24:18.889Z,15.60
2022-09-04T05:26:56.084Z,15.60
2022-09-04T05:29:40.552Z,15.50
2022-09-04T05:32:39.637Z,15.60
2022-09-04T05:35:35.462Z,15.60
2022-09-04T05:38:10.914Z,15.60
2022-09-04T05:41:26.909Z,15.60
2022-09-04T05:44:28.668Z,15.60
2022-09-04T05:47:18.709Z,15.60
2022-09-04T05:50:23.154Z,15.60
2022-09-04T05:52:56.876Z,15.70
2022-09-04T05:55:41.042Z,15.70
2022-09-04T05:58:30.940Z,15.70
2022-09-04T06:01:36.053Z,15.70
2022-09-04T06:04:27.646Z,15.80
2022-09-04T06:07:09.597Z,15.80
2022-09-04T06:09:57.678Z,15.80
2022-09-04T06:12:40.992Z,15.80
2022-09-04T06:15:38.663Z,15.80
2022-09-04T06:18:26.961Z,15.80
2022-09-04T06:21:22.798Z,15.80
2022-09-04T06:24:15.257Z,15.80
2022-09-04T06:27:03.477Z,15.80
2022-09-04T06:29:49.365Z,15.90
2022-09-04T06:32:37.450Z,15.90
2022-09-04T06:35:38.048Z,15.90
2022-09-04T06:38:14.329Z,16.00
2022-09-04T06:41:18.552Z,16.00
2022-09-04T06:44:03.953Z,16.00
2022-09-04T06:46:53.298Z,16.10
2022-09-04T06:50:12.431Z,16.10
2022-09-04T06:53:08.308Z,16.10
2022-09-04T06:55:48.562Z,16.20
2022-09-04T06:58:46.258Z,16.20
2022-09-04T07:01:26.356Z,16.30
2022-09-04T07:04:10.242Z,16.40
2022-09-04T07:06:56.540Z,16.40
2022-09-04T07:09:33.026Z,16.40
2022-09-04T07:12:26.177Z,16.50
2022-09-04T07:15:14.813Z,16.60
2022-09-04T07:18:01.143Z,16.70
2022-09-04T07:20:46.669Z,16.80
2022-09-04T07:23:22.558Z,16.90
2022-09-04T07:26:05.234Z,17.00
2022-09-04T07:28:37.812Z,17.10
2022-09-04T07:31:27.255Z,17.20
2022-09-04T07:34:23.738Z,17.40
2022-09-04T07:37:13.965Z,17.50
2022-09-04T07:40:01.189Z,17.60
2022-09-04T07:42:42.301Z,17.80
2022-09-04T07:45:22.396Z,17.90
2022-09-04T07:48:22.103Z,18.00
2022-09-04T07:51:04.681Z,18.20
2022-09-04T07:54:01.009Z,18.40
2022-09-04T07:56:49.281Z,18.50
2022-09-04T07:59:39.381Z,18.70
2022-09-04T08:02:28.195Z,18.90
2022-09-04T08:05:31.677Z,19.00
2022-09-04T08:08:10.604Z,19.30
2022-09-04T08:11:00.507Z,19.40
2022-09-04T08:13:49.239Z,19.60
2022-09-04T08:16:47.013Z,19.80
2022-09-04T08:19:41.665Z,20.00
2022-09-04T08:22:31.742Z,20.20
2022-09-04T08:25:23.136Z,20.40
2022-09-04T08:28:08.263Z,20.60
2022-09-04T08:30:47.223Z,20.90
2022-09-04T08:33:23.662Z,21.00
2022-09-04T08:36:07.672Z,21.30
2022-09-04T08:38:56.575Z,21.90
2022-09-04T08:41:25.427Z,22.90
2022-09-04T08:44:10.157Z,24.00
2022-09-04T08:47:14.250Z,25.40
2022-09-04T08:50:02.169Z,27.10
2022-09-04T08:52:52.522Z,28.60
2022-09-04T08:55:35.749Z,30.30
2022-09-04T08:58:11.221Z,31.70
2022-09-04T09:01:07.261Z,32.90
2022-09-04T09:04:04.991Z,34.00
2022-09-04T09:07:02.913Z,35.10
2022-09-04T09:10:09.456Z,36.20
2022-09-04T09:13:05.455Z,37.00
2022-09-04T09:16:27.865Z,37.80
2022-09-04T09:19:38.028Z,38.70
2022-09-04T09:22:18.945Z,39.60
2022-09-04T09:25:16.621Z,40.10
2022-09-04T09:28:17.539Z,40.70
2022-09-04T09:31:08.600Z,41.30
2022-09-04T09:34:11.407Z,41.80
2022-09-04T09:36:44.445Z,42.30
2022-09-04T09:39:44.943Z,42.50
2022-09-04T09:42:20.441Z,42.80
2022-09-04T09:45:06.143Z,43.10
2022-09-04T09:47:59.408Z,43.40
2022-09-04T09:50:40.298Z,43.70
2022-09-04T09:53:12.738Z,43.80
2022-09-04T09:55:58.629Z,44.00
2022-09-04T09:58:37.658Z,44.30
2022-09-04T10:01:16.250Z,44.50
2022-09-04T10:04:18.345Z,44.60
2022-09-04T10:06:54.796Z,44.70
2022-09-04T10:09:49.329Z,44.80
2022-09-04T10:12:25.038Z,45.00
2022-09-04T10:15:27.603Z,45.20
2022-09-04T10:18:13.602Z,45.40
2022-09-04T10:20:49.484Z,45.60
2022-09-04T10:23:39.017Z,45.80
2022-09-04T10:26:35.824Z,45.80
2022-09-04T10:29:32.351Z,45.60
2022-09-04T10:32:06.992Z,45.10
2022-09-04T10:34:54.358Z,44.40
2022-09-04T10:37:58.316Z,43.60
2022-09-04T10:40:51.555Z,42.60
2022-09-04T10:43:46.364Z,41.70
2022-09-04T10:46:43.733Z,40.80
2022-09-04T10:49:47.601Z,40.20
2022-09-04T10:52:21.692Z,39.70
2022-09-04T10:55:02.578Z,39.60
2022-09-04T10:57:39.857Z,39.60
2022-09-04T11:00:21.660Z,39.70
2022-09-04T11:03:22.901Z,39.60
2022-09-04T11:06:11.436Z,39.30
2022-09-04T11:09:00.514Z,38.80
2022-09-04T11:11:44.844Z,38.30
2022-09-04T11:14:33.116Z,37.90
2022-09-04T11:17:24.897Z,37.70
2022-09-04T11:20:17.580Z,37.80
2022-09-04T11:23:29.349Z,38.10
2022-09-04T11:26:47.428Z,38.50
2022-09-04T11:29:41.084Z,38.90
2022-09-04T11:32:35.642Z,39.00
2022-09-04T11:35:26.630Z,39.30
2022-09-04T11:38:30.408Z,39.40
2022-09-04T11:41:15.740Z,39.60
2022-09-04T11:44:08.278Z,39.80
2022-09-04T11:46:59.839Z,40.00
2022-09-04T11:49:57.703Z,40.30
2022-09-04T11:53:01.886Z,40.60
2022-09-04T11:55:59.548Z,40.90
2022-09-04T11:58:44.837Z,41.10
2022-09-04T12:01:30.766Z,41.00
2022-09-04T12:04:25.616Z,40.60
2022-09-04T12:07:37.916Z,40.20
2022-09-04T12:10:42.866Z,39.70
2022-09-04T12:13:40.117Z,39.50
2022-09-04T12:16:27.081Z,39.40
2022-09-04T12:19:26.989Z,39.40
2022-09-04T12:22:26.098Z,39.50
2022-09-04T12:25:15.124Z,39.70
2022-09-04T12:28:00.289Z,39.90
2022-09-04T12:30:41.772Z,40.10
2022-09-04T12:33:58.005Z,40.40
2022-09-04T12:36:46.397Z,40.70
2022-09-04T12:40:09.109Z,40.90
2022-09-04T12:43:03.550Z,41.10
2022-09-04T12:45:51.934Z,41.00
2022-09-04T12:48:19.077Z,40.60
2022-09-04T12:51:09.393Z,40.00
2022-09-04T12:54:02.570Z,39.60
2022-09-04T12:56:45.253Z,39.30
2022-09-04T12:59:29.920Z,39.10
2022-09-04T13:02:09.390Z,38.90
2022-09-04T13:05:06.832Z,38.70
2022-09-04T13:08:07.589Z,38.60
2022-09-04T13:10:45.829Z,38.70
2022-09-04T13:13:25.140Z,38.80
2022-09-04T13:16:44.978Z,39.00
2022-09-04T13:19:50.496Z,39.20
2022-09-04T13:22:43.322Z,39.30
2022-09-04T13:25:27.283Z,39.30
2022-09-04T13:28:35.537Z,39.20
2022-09-04T13:31:44.315Z,39.00
2022-09-04T13:34:43.540Z,38.80
2022-09-04T13:37:46.069Z,38.50
2022-09-04T13:40:26.550Z,38.30
2022-09-04T13:43:24.218Z,38.20
2022-09-04T13:45:54.604Z,38.30
2022-09-04T13:48:42.578Z,38.30
2022-09-04T13:51:23.435Z,38.20
2022-09-04T13:54:00.152Z,38.20
2022-09-04T13:57:05.558Z,38.10
2022-09-04T13:59:33.073Z,38.00
2022-09-04T14:02:04.841Z,38.10
2022-09-04T14:04:44.111Z,38.10
2022-09-04T14:07:24.787Z,38.10
2022-09-04T14:09:55.608Z,38.10
2022-09-04T14:12:37.573Z,38.20
2022-09-04T14:15:22.486Z,38.20
2022-09-04T14:18:16.949Z,38.00
2022-09-04T14:20:49.810Z,37.90
2022-09-04T14:23:41.605Z,37.80
2022-09-04T14:26:44.230Z,37.80
2022-09-04T14:29:38.894Z,37.80
2022-09-04T14:32:32.243Z,37.80
2022-09-04T14:35:10.591Z,37.80
2022-09-04T14:37:48.215Z,37.80
2022-09-04T14:40:21.145Z,37.70
2022-09-04T14:42:52.002Z,37.50
2022-09-04T14:45:35.624Z,37.30
2022-09-04T14:48:10.021Z,37.00
2022-09-04T14:50:59.972Z,36.80
2022-09-04T14:53:32.172Z,36.60
2022-09-04T14:56:17.375Z,36.50
2022-09-04T14:59:00.279Z,36.40
2022-09-04T15:01:27.765Z,36.40
2022-09-04T15:04:17.890Z,36.50
2022-09-04T15:07:10.900Z,36.50
2022-09-04T15:09:42.773Z,36.50
2022-09-04T15:12:25.774Z,36.40
2022-09-04T15:18:09.950Z,36.40
2022-09-04T15:20:40.491Z,36.40
2022-09-04T15:23:30.528Z,36.30
2022-09-04T15:26:03.615Z,36.30
2022-09-04T15:28:47.425Z,36.20
2022-09-04T15:31:28.221Z,36.10
2022-09-04T15:34:02.528Z,36.10
2022-09-04T15:36:30.500Z,36.00
2022-09-04T15:39:01.838Z,35.90
2022-09-04T15:41:43.076Z,35.90
2022-09-04T15:44:31.570Z,35.80
2022-09-04T15:47:18.152Z,35.80
2022-09-04T15:50:04.489Z,35.70
2022-09-04T15:53:20.683Z,35.70
2022-09-04T15:56:06.135Z,35.70
2022-09-04T15:59:01.714Z,35.70
2022-09-04T16:01:40.347Z,35.70
2022-09-04T16:04:23.229Z,35.60
2022-09-04T16:06:57.746Z,35.60
2022-09-04T16:09:33.213Z,35.50
2022-09-04T16:12:20.440Z,35.40
2022-09-04T16:14:51.972Z,35.40
2022-09-04T16:17:27.904Z,35.30
2022-09-04T16:20:02.150Z,35.10
2022-09-04T16:22:43.839Z,35.10
2022-09-04T16:25:34.720Z,35.00
2022-09-04T16:28:15.256Z,34.90
2022-09-04T16:30:47.202Z,34.90
2022-09-04T16:33:28.224Z,34.90
2022-09-04T16:36:40.717Z,34.80
2022-09-04T16:39:14.488Z,34.70
2022-09-04T16:41:52.651Z,34.60
2022-09-04T16:44:25.647Z,34.50
2022-09-04T16:47:11.134Z,34.40
2022-09-04T16:50:13.248Z,34.10
2022-09-04T16:52:49.466Z,34.00
2022-09-04T16:55:37.837Z,33.80
2022-09-04T16:58:11.498Z,33.60
2022-09-04T17:01:14.300Z,33.50
2022-09-04T17:04:13.840Z,33.30
2022-09-04T17:07:03.450Z,33.10
2022-09-04T17:10:04.049Z,32.90
2022-09-04T17:12:56.400Z,32.70
2022-09-04T17:15:27.083Z,32.50
2022-09-04T17:17:54.584Z,32.40
2022-09-04T17:25:58.715Z,32.30
2022-09-04T17:28:58.468Z,32.20
2022-09-04T17:29:13.812Z,32.00
2022-09-04T17:30:02.023Z,31.90
2022-09-04T17:36:37.715Z,31.80
2022-09-04T17:40:32.741Z,31.70
2022-09-04T17:40:50.008Z,31.60
2022-09-04T17:41:58.119Z,31.50
2022-09-04T17:44:47.218Z,31.40
2022-09-04T17:47:34.629Z,31.20
2022-09-04T17:50:02.159Z,31.10
2022-09-04T17:52:38.049Z,31.00
2022-09-04T17:55:11.485Z,30.80
2022-09-04T17:58:03.249Z,30.60
2022-09-04T18:00:50.680Z,30.40
2022-09-04T18:03:35.857Z,30.30
2022-09-04T18:06:13.669Z,30.10
2022-09-04T18:08:55.777Z,29.90
2022-09-04T18:11:33.041Z,29.80
2022-09-04T18:14:32.377Z,29.60
2022-09-04T18:17:12.612Z,29.40
2022-09-04T18:19:47.326Z,29.20
2022-09-04T18:22:42.214Z,29.10
2022-09-04T18:25:50.747Z,28.80
2022-09-04T18:28:29.005Z,28.70
2022-09-04T18:37:11.415Z,28.50
2022-09-04T18:37:11.416Z,28.30
2022-09-04T18:37:46.241Z,28.20
2022-09-04T18:40:07.985Z,28.00
2022-09-04T18:50:25.619Z,27.90
2022-09-04T18:50:33.447Z,27.50
2022-09-04T18:50:35.117Z,27.70
2022-09-04T18:51:38.255Z,27.40
2022-09-04T18:54:20.097Z,27.30
2022-09-04T18:56:53.518Z,27.20
2022-09-04T18:59:28.229Z,27.00
2022-09-04T19:02:04.141Z,26.90
2022-09-04T19:05:09.410Z,26.80
2022-09-04T19:07:51.798Z,26.70
2022-09-04T19:10:39.049Z,26.60
2022-09-04T19:13:23.685Z,26.50
2022-09-04T19:16:07.907Z,26.40
2022-09-04T19:19:00.717Z,26.30
2022-09-04T19:21:44.631Z,26.20
2022-09-04T19:24:34.941Z,26.10
2022-09-04T19:27:42.446Z,26.00
2022-09-04T19:30:18.224Z,25.90
2022-09-04T19:32:59.685Z,25.80
2022-09-04T19:35:43.350Z,25.70
2022-09-04T19:45:26.249Z,25.60
2022-09-04T19:46:04.887Z,25.50
2022-09-04T19:46:05.763Z,25.40
2022-09-04T19:47:39.460Z,25.30
2022-09-04T19:53:19.745Z,25.20
2022-09-04T19:53:36.321Z,25.10
2022-09-04T19:56:29.204Z,25.00
2022-09-04T19:59:04.802Z,24.90
2022-09-04T20:01:44.124Z,24.80
2022-09-04T20:04:37.217Z,24.70
2022-09-04T20:07:44.797Z,24.60
2022-09-04T20:10:30.664Z,24.60
2022-09-04T20:13:19.345Z,24.40
2022-09-04T20:16:21.342Z,24.40
2022-09-04T20:19:28.014Z,24.30
2022-09-04T20:21:59.248Z,24.20
2022-09-04T20:25:01.630Z,24.10
2022-09-04T20:27:33.284Z,24.00
2022-09-04T20:30:12.870Z,24.00
2022-09-04T20:32:56.571Z,23.90
2022-09-04T20:35:48.253Z,23.80
2022-09-04T20:38:23.113Z,23.70
2022-09-04T20:41:03.438Z,23.70
2022-09-04T20:43:48.333Z,23.60
2022-09-04T20:52:49.921Z,23.60
2022-09-04T20:52:59.184Z,23.50
2022-09-04T20:53:07.814Z,23.40
2022-09-04T20:55:54.836Z,23.30
2022-09-04T21:03:09.941Z,23.30
2022-09-04T21:03:19.143Z,23.20
2022-09-04T21:05:11.987Z,23.10
2022-09-04T21:07:44.981Z,23.00
2022-09-04T21:10:27.323Z,23.00
2022-09-04T21:13:25.971Z,22.90
2022-09-04T21:16:01.756Z,22.80
2022-09-04T21:18:38.960Z,22.80
2022-09-04T21:21:16.129Z,22.70
2022-09-04T21:24:12.332Z,22.70
2022-09-04T21:27:01.102Z,22.60
2022-09-04T21:29:39.390Z,22.50
2022-09-04T21:32:21.517Z,22.50
2022-09-04T21:35:25.053Z,22.40
2022-09-04T21:38:14.704Z,22.40
2022-09-04T21:40:59.663Z,22.30
2022-09-04T21:43:35.788Z,22.20
2022-09-04T21:46:04.671Z,22.20
2022-09-04T21:49:08.427Z,22.20
2022-09-04T21:52:00.298Z,22.10
2022-09-04T21:59:56.859Z,22.00
2022-09-04T22:02:30.010Z,22.00
2022-09-04T22:02:42.249Z,21.90
2022-09-04T22:04:16.992Z,21.90
2022-09-04T22:08:01.100Z,21.80
2022-09-04T22:13:28.520Z,21.80
2022-09-04T22:13:46.221Z,21.70
2022-09-04T22:16:18.399Z,21.70
2022-09-04T22:19:16.539Z,21.60
2022-09-04T22:22:05.637Z,21.50
2022-09-04T22:25:00.537Z,21.50
2022-09-04T22:28:08.569Z,21.50
2022-09-04T22:31:07.559Z,21.40
2022-09-04T22:34:17.641Z,21.40
2022-09-04T22:37:18.362Z,21.40
2022-09-04T22:39:59.419Z,21.30
2022-09-04T22:42:48.171Z,21.30
2022-09-04T22:45:35.177Z,21.20
2022-09-04T22:48:36.393Z,21.20
2022-09-04T22:51:50.476Z,21.10
2022-09-04T22:54:29.121Z,21.10
2022-09-04T22:57:10.126Z,21.00
2022-09-04T23:00:12.958Z,21.00
2022-09-04T23:03:08.152Z,21.00
2022-09-04T23:06:44.706Z,20.90
2022-09-04T23:13:47.313Z,20.80
2022-09-04T23:13:50.371Z,20.80
2022-09-04T23:15:28.961Z,20.80
2022-09-04T23:22:35.447Z,20.70
2022-09-04T23:26:42.363Z,20.60
2022-09-04T23:26:45.331Z,20.70
2022-09-04T23:27:27.999Z,20.60
2022-09-04T23:30:10.369Z,20.50
2022-09-04T23:33:27.744Z,20.50
2022-09-04T23:36:12.049Z,20.50
2022-09-04T23:38:57.572Z,20.40
2022-09-04T23:41:37.041Z,20.40
2022-09-04T23:44:25.401Z,20.30
2022-09-04T23:47:10.958Z,20.30
2022-09-04T23:50:24.214Z,20.30
2022-09-04T23:53:09.235Z,20.20
2022-09-04T23:55:50.330Z,20.20
2022-09-04T23:58:56.224Z,20.20
